ěÝzenÝ letovÚho provozu ╚eskÚ republiky
Letiste: LKMT Aktualizace: 17.04.2021 21:30:26  UTC
 METAR LKMT 17.04. 21:30 ...
METAR LKMT 172130Z 03002KT 6000 -RA OVC012 05/04 Q1019 NOSIG RMK REG QNH 1017=
 TAF LKMT 17.04. 17:00 AAA
TAF AMD LKMT 172105Z 1721/1900 04004KT 7000 OVC013      TEMPO 1721/1807 3000 BR BKN006      PROB30 TEMPO 1722/1807 1200 BR BKN003      BECMG 1807/1810 03010KT BKN020=